Time;durP1;ratioP1;P1;durP2;ratioP2;P2;SDS_P1;SDS_P2;PMS_P1;PMS_P2;Temp;Humidity;BMP_temperature;BMP_pressure;BME280_temperature;BME280_humidity;BME280_pressure;Samples;Min_cycle;Max_cycle;Signal;HPM_P1;HPM_P2
2022/09/25 00:01:13;;;;;;;2.28;1.00;;;;;16.80;101429.00;;;;5009374;28;20639;-78
2022/09/25 00:03:41;;;;;;;1.15;0.85;;;;;16.80;101421.00;;;;5009264;28;20610;-78
2022/09/25 00:06:13;;;;;;;2.67;0.82;;;;;16.80;101424.00;;;;5008732;28;20354;-78
2022/09/25 00:08:41;;;;;;;2.83;1.10;;;;;16.80;101418.00;;;;4997551;28;20280;-78
2022/09/25 00:11:11;;;;;;;2.67;0.70;;;;;16.70;101421.00;;;;5008646;28;20201;-78
2022/09/25 00:13:39;;;;;;;1.50;0.88;;;;;16.70;101423.00;;;;5009688;28;20196;-78
2022/09/25 00:16:09;;;;;;;1.55;0.70;;;;;16.70;101425.00;;;;5009891;28;20251;-78
2022/09/25 00:21:29;;;;;;;2.10;1.08;;;;;16.70;101432.00;;;;5008091;28;20359;-77
2022/09/25 00:23:59;;;;;;;7.35;1.20;;;;;16.60;101441.00;;;;5002771;28;20255;-78
2022/09/25 00:26:27;;;;;;;2.08;0.85;;;;;16.60;101437.00;;;;5003872;28;20248;-78
2022/09/25 00:28:55;;;;;;;2.53;1.00;;;;;16.60;101438.00;;;;5002713;28;20221;-78
2022/09/25 00:31:24;;;;;;;2.05;0.65;;;;;16.60;101441.00;;;;5008563;28;20195;-78
2022/09/25 00:33:52;;;;;;;1.75;1.00;;;;;16.60;101438.00;;;;5007477;28;20224;-78
2022/09/25 00:36:19;;;;;;;3.28;1.00;;;;;16.50;101434.00;;;;5006866;28;20212;-78
2022/09/25 00:38:49;;;;;;;3.67;1.67;;;;;16.50;101433.00;;;;5008817;28;20216;-77
2022/09/25 00:41:19;;;;;;;3.72;1.20;;;;;16.50;101440.00;;;;4999997;28;20652;-78
2022/09/25 00:43:49;;;;;;;1.20;1.00;;;;;16.50;101441.00;;;;5001992;28;20204;-77
2022/09/25 00:46:20;;;;;;;1.50;1.00;;;;;16.40;101447.00;;;;5007794;28;20703;-77
2022/09/25 00:48:51;;;;;;;3.22;1.20;;;;;16.40;101436.00;;;;5008995;28;20204;-78
2022/09/25 00:51:28;;;;;;;3.70;1.38;;;;;16.40;101440.00;;;;5009268;28;20197;-78
2022/09/25 00:54:00;;;;;;;1.58;1.10;;;;;16.40;101439.00;;;;5007308;28;20196;-78
2022/09/25 00:56:33;;;;;;;2.78;0.80;;;;;16.30;101440.00;;;;5007719;28;20578;-78
2022/09/25 00:59:00;;;;;;;1.70;1.05;;;;;16.30;101441.00;;;;4993635;28;20221;-78
2022/09/25 01:01:28;;;;;;;2.17;1.00;;;;;16.30;101442.00;;;;5007013;28;20205;-78
2022/09/25 01:03:56;;;;;;;2.95;1.08;;;;;16.30;101444.00;;;;5007945;28;20670;-78
2022/09/25 01:06:26;;;;;;;3.30;0.93;;;;;16.30;101439.00;;;;5004088;28;20235;-78
2022/09/25 01:08:54;;;;;;;1.08;0.80;;;;;16.30;101438.00;;;;5007535;28;20208;-78
2022/09/25 01:11:22;;;;;;;1.77;0.80;;;;;16.30;101435.00;;;;5008257;28;20217;-78
2022/09/25 01:13:52;;;;;;;0.95;0.60;;;;;16.30;101430.00;;;;5008721;28;20201;-78
2022/09/25 01:16:26;;;;;;;3.40;1.13;;;;;16.20;101440.00;;;;5002875;28;20576;-78
2022/09/25 01:19:04;;;;;;;3.83;1.00;;;;;16.20;101438.00;;;;5009126;28;20215;-78
2022/09/25 01:21:37;;;;;;;4.88;1.02;;;;;16.20;101437.00;;;;5008821;28;20201;-78
2022/09/25 01:24:23;;;;;;;3.28;0.95;;;;;16.10;101438.00;;;;5007006;28;20277;-78
2022/09/25 01:27:18;;;;;;;1.30;0.80;;;;;16.10;101430.00;;;;5003892;28;20220;-78
2022/09/25 01:29:53;;;;;;;3.70;0.95;;;;;16.10;101437.00;;;;5008569;28;20199;-78
2022/09/25 01:32:27;;;;;;;1.70;1.00;;;;;16.10;101436.00;;;;5007412;28;20213;-78
2022/09/25 01:35:02;;;;;;;2.03;0.95;;;;;16.10;101430.00;;;;5007875;28;20200;-78
2022/09/25 01:37:37;;;;;;;3.53;1.35;;;;;16.10;101434.00;;;;5026006;28;20199;-78
2022/09/25 01:40:10;;;;;;;3.53;0.85;;;;;16.10;101433.00;;;;5018833;28;20197;-78
2022/09/25 01:42:49;;;;;;;2.60;0.70;;;;;16.10;101429.00;;;;5007999;28;20197;-78
2022/09/25 01:45:21;;;;;;;2.10;1.00;;;;;16.00;101434.00;;;;5006964;28;20651;-78
2022/09/25 01:47:52;;;;;;;3.17;0.73;;;;;16.00;101424.00;;;;5008165;28;20244;-78
2022/09/25 01:50:25;;;;;;;1.15;0.68;;;;;16.00;101433.00;;;;4990811;28;20569;-78
2022/09/25 01:52:58;;;;;;;1.05;0.85;;;;;16.00;101428.00;;;;4988578;28;20226;-78
2022/09/25 01:55:30;;;;;;;1.48;0.60;;;;;16.00;101434.00;;;;5005855;28;20201;-78
2022/09/25 01:58:03;;;;;;;1.30;0.80;;;;;15.90;101438.00;;;;5007403;28;20216;-78
2022/09/25 02:00:36;;;;;;;1.45;0.70;;;;;15.90;101431.00;;;;5008252;28;20216;-78
2022/09/25 02:03:11;;;;;;;1.88;0.70;;;;;15.90;101431.00;;;;5008121;28;20193;-78
2022/09/25 02:05:44;;;;;;;2.90;0.75;;;;;15.80;101423.00;;;;4996303;28;20263;-78
2022/09/25 02:08:17;;;;;;;3.10;0.85;;;;;15.80;101426.00;;;;5002618;28;20197;-78
2022/09/25 02:10:50;;;;;;;4.60;1.20;;;;;15.80;101430.00;;;;5008249;28;20220;-78
2022/09/25 02:13:19;;;;;;;4.45;1.48;;;;;15.80;101433.00;;;;5006648;28;20210;-78
2022/09/25 02:15:52;;;;;;;0.70;0.57;;;;;15.70;101421.00;;;;4988257;28;20210;-78
2022/09/25 02:21:14;;;;;;;1.20;0.80;;;;;15.60;101423.00;;;;4996080;28;20216;-78
2022/09/25 02:23:50;;;;;;;2.00;0.90;;;;;15.60;101430.00;;;;5017470;28;20200;-77
2022/09/25 02:26:25;;;;;;;1.25;0.75;;;;;15.60;101430.00;;;;5011175;28;20224;-78
2022/09/25 02:28:53;;;;;;;1.92;0.95;;;;;15.70;101441.00;;;;5011848;28;20223;-77
2022/09/25 02:31:25;;;;;;;1.90;0.70;;;;;15.60;101432.00;;;;5011395;28;20246;-78
2022/09/25 02:33:52;;;;;;;2.33;0.90;;;;;15.60;101429.00;;;;5010233;28;20197;-78
2022/09/25 02:36:22;;;;;;;4.30;0.85;;;;;15.60;101437.00;;;;5021195;28;20596;-78
2022/09/25 02:38:51;;;;;;;1.65;0.80;;;;;15.50;101442.00;;;;5031219;28;20200;-78
2022/09/25 02:41:31;;;;;;;1.58;0.70;;;;;15.50;101438.00;;;;5003634;28;20205;-77
2022/09/25 02:44:06;;;;;;;1.10;0.55;;;;;15.40;101443.00;;;;5015679;28;20200;-78
2022/09/25 02:46:44;;;;;;;1.38;0.82;;;;;15.40;101432.00;;;;5015162;28;20217;-78
2022/09/25 02:49:23;;;;;;;1.63;0.70;;;;;15.40;101424.00;;;;5010648;28;20200;-78
2022/09/25 02:51:56;;;;;;;1.65;0.90;;;;;15.40;101433.00;;;;5009825;28;20201;-78
2022/09/25 02:54:31;;;;;;;1.67;0.82;;;;;15.40;101434.00;;;;5011374;28;20196;-78
2022/09/25 02:57:04;;;;;;;1.23;0.80;;;;;15.30;101427.00;;;;5003142;28;20201;-78
2022/09/25 02:59:36;;;;;;;0.77;0.70;;;;;15.30;101429.00;;;;4994066;28;20236;-78
2022/09/25 03:02:05;;;;;;;1.40;0.52;;;;;15.30;101432.00;;;;5009213;28;20200;-78
2022/09/25 03:04:34;;;;;;;2.60;0.70;;;;;15.30;101422.00;;;;5010166;28;20212;-78
2022/09/25 03:07:02;;;;;;;0.80;0.80;;;;;15.30;101431.00;;;;5008651;28;20260;-78
2022/09/25 03:09:32;;;;;;;1.92;1.20;;;;;15.30;101431.00;;;;5009274;28;20197;-78
2022/09/25 03:12:03;;;;;;;1.33;0.88;;;;;15.20;101432.00;;;;5010113;28;20291;-78
2022/09/25 03:14:30;;;;;;;1.40;1.05;;;;;15.20;101422.00;;;;5009126;28;20193;-78
2022/09/25 03:17:00;;;;;;;1.65;0.68;;;;;15.20;101423.00;;;;5009037;28;20201;-78
2022/09/25 03:19:29;;;;;;;2.50;0.98;;;;;15.20;101424.00;;;;5010851;28;20189;-78
2022/09/25 03:21:57;;;;;;;0.98;0.77;;;;;15.20;101429.00;;;;5009585;28;20212;-78
2022/09/25 03:24:24;;;;;;;1.50;0.88;;;;;15.20;101429.00;;;;5010866;28;20196;-78
2022/09/25 03:26:52;;;;;;;2.63;1.00;;;;;15.20;101427.00;;;;5008958;28;20228;-78
2022/09/25 03:29:20;;;;;;;1.25;0.70;;;;;15.20;101424.00;;;;5008527;28;20193;-78
2022/09/25 03:31:48;;;;;;;1.42;0.90;;;;;15.10;101420.00;;;;4996452;28;20213;-78
2022/09/25 03:34:18;;;;;;;1.38;1.00;;;;;15.10;101425.00;;;;4991085;28;20221;-78
2022/09/25 03:36:47;;;;;;;1.83;0.90;;;;;15.10;101430.00;;;;5005661;28;20212;-77
2022/09/25 03:39:16;;;;;;;3.00;1.10;;;;;15.10;101424.00;;;;5021013;28;20244;-77
2022/09/25 03:41:44;;;;;;;1.30;0.90;;;;;15.10;101420.00;;;;5010040;28;20205;-78
2022/09/25 03:44:11;;;;;;;1.20;0.70;;;;;15.00;101420.00;;;;5008848;28;20655;-78
2022/09/25 03:46:38;;;;;;;1.02;0.93;;;;;15.00;101424.00;;;;5009457;28;20228;-78
2022/09/25 03:49:06;;;;;;;0.93;0.77;;;;;15.00;101421.00;;;;4993197;28;20202;-78
2022/09/25 03:51:34;;;;;;;4.28;1.00;;;;;15.00;101419.00;;;;5000550;28;20201;-78
2022/09/25 03:54:03;;;;;;;1.08;0.90;;;;;15.00;101410.00;;;;5006273;28;20208;-77
2022/09/25 03:56:31;;;;;;;1.35;1.17;;;;;15.00;101416.00;;;;5008921;28;20231;-78
2022/09/25 03:58:59;;;;;;;1.77;0.82;;;;;15.00;101410.00;;;;5009170;28;20310;-78
2022/09/25 04:01:27;;;;;;;2.97;0.90;;;;;14.90;101411.00;;;;5008388;28;20690;-78
2022/09/25 04:03:55;;;;;;;0.80;0.75;;;;;14.90;101413.00;;;;5005307;28;20209;-77
2022/09/25 04:06:24;;;;;;;1.23;0.85;;;;;14.90;101419.00;;;;5007487;28;20209;-78
2022/09/25 04:08:53;;;;;;;1.45;1.25;;;;;14.90;101427.00;;;;5006368;28;20197;-78
2022/09/25 04:11:23;;;;;;;1.45;0.70;;;;;14.90;101425.00;;;;5007054;28;20208;-78
2022/09/25 04:13:51;;;;;;;1.13;0.82;;;;;14.90;101420.00;;;;5007201;28;20229;-78
2022/09/25 04:16:19;;;;;;;4.10;1.08;;;;;14.90;101422.00;;;;5009649;28;20208;-78
2022/09/25 04:18:47;;;;;;;1.33;1.20;;;;;14.90;101422.00;;;;5009469;28;20205;-78
2022/09/25 04:21:15;;;;;;;0.98;0.73;;;;;14.90;101415.00;;;;5008352;28;20549;-78
2022/09/25 04:24:46;;;;;;;4.15;1.27;;;;;14.90;101410.00;;;;5002286;28;20252;-78
2022/09/25 04:26:32;;;;;;;2.58;1.15;;;;;14.90;101409.00;;;;5005810;28;20208;-78
2022/09/25 04:29:00;;;;;;;1.60;1.27;;;;;14.90;101418.00;;;;5009519;28;20798;-78
2022/09/25 04:31:28;;;;;;;1.75;1.05;;;;;14.90;101406.00;;;;5006976;28;20204;-78
2022/09/25 04:33:54;;;;;;;2.17;1.02;;;;;14.90;101417.00;;;;5005645;28;20247;-78
2022/09/25 04:36:22;;;;;;;1.52;0.80;;;;;14.90;101408.00;;;;5009733;28;20193;-78
2022/09/25 04:38:49;;;;;;;2.42;1.15;;;;;14.90;101411.00;;;;5003146;28;20209;-78
2022/09/25 04:41:18;;;;;;;1.63;0.98;;;;;14.90;101405.00;;;;4992268;28;20201;-78
2022/09/25 04:43:47;;;;;;;2.65;0.93;;;;;14.90;101403.00;;;;5007783;28;20233;-78
2022/09/25 04:46:16;;;;;;;2.70;0.80;;;;;14.90;101406.00;;;;5009323;28;20200;-78
2022/09/25 04:48:45;;;;;;;1.33;0.82;;;;;14.90;101405.00;;;;5009085;28;20224;-78
2022/09/25 04:51:13;;;;;;;2.05;1.05;;;;;15.00;101403.00;;;;5007849;28;20208;-78
2022/09/25 04:53:40;;;;;;;1.08;0.93;;;;;14.90;101405.00;;;;5006991;28;20192;-78
2022/09/25 04:56:10;;;;;;;1.20;1.00;;;;;14.90;101402.00;;;;5000135;28;20676;-78
2022/09/25 04:58:37;;;;;;;2.35;0.90;;;;;14.90;101396.00;;;;4989265;28;20237;-78
2022/09/25 05:01:09;;;;;;;1.63;1.05;;;;;14.90;101403.00;;;;4996454;28;20200;-78
2022/09/25 05:03:36;;;;;;;2.60;0.80;;;;;14.90;101408.00;;;;5005846;28;20573;-78
2022/09/25 05:06:04;;;;;;;2.85;1.40;;;;;14.90;101402.00;;;;5007313;28;20213;-78
2022/09/25 05:08:31;;;;;;;1.92;1.20;;;;;14.90;101405.00;;;;5008282;28;20224;-78
2022/09/25 05:10:58;;;;;;;1.38;1.10;;;;;14.90;101397.00;;;;5007542;28;20209;-78
2022/09/25 05:13:26;;;;;;;2.33;1.00;;;;;14.90;101406.00;;;;5004064;28;20204;-78
2022/09/25 05:15:55;;;;;;;2.00;1.15;;;;;14.90;101402.00;;;;5006729;28;20208;-78
2022/09/25 05:18:25;;;;;;;1.67;1.10;;;;;14.90;101408.00;;;;5008589;28;20236;-78
2022/09/25 05:20:53;;;;;;;1.70;1.20;;;;;14.90;101397.00;;;;5009073;28;20216;-78
2022/09/25 05:23:22;;;;;;;2.80;1.08;;;;;14.90;101403.00;;;;5006097;28;20689;-78
2022/09/25 05:25:52;;;;;;;2.45;1.42;;;;;14.90;101402.00;;;;5006342;28;20205;-78
2022/09/25 05:28:20;;;;;;;1.23;0.90;;;;;14.90;101404.00;;;;5008810;28;20232;-78
2022/09/25 05:30:47;;;;;;;2.28;0.90;;;;;14.90;101395.00;;;;5004287;28;20212;-78
2022/09/25 05:33:14;;;;;;;2.10;1.13;;;;;14.90;101398.00;;;;5007212;28;20200;-78
2022/09/25 05:35:43;;;;;;;2.35;1.30;;;;;14.90;101402.00;;;;5014518;28;20203;-79
2022/09/25 05:38:11;;;;;;;2.92;0.82;;;;;14.90;101404.00;;;;5027545;28;20215;-79
2022/09/25 05:40:38;;;;;;;1.52;1.10;;;;;14.90;101403.00;;;;5027566;28;20215;-79
2022/09/25 05:43:06;;;;;;;1.38;1.10;;;;;14.90;101412.00;;;;5006834;28;20205;-79
2022/09/25 05:45:34;;;;;;;1.40;1.25;;;;;14.80;101406.00;;;;5005681;28;20204;-79
2022/09/25 05:48:03;;;;;;;3.38;0.95;;;;;14.90;101407.00;;;;5001176;28;20225;-79
2022/09/25 05:50:31;;;;;;;1.67;0.90;;;;;14.80;101397.00;;;;5005716;28;20209;-78
2022/09/25 05:53:02;;;;;;;1.42;1.08;;;;;14.80;101401.00;;;;5010446;28;20193;-78
2022/09/25 05:55:29;;;;;;;2.38;0.85;;;;;14.80;101406.00;;;;5008924;28;20200;-78
2022/09/25 05:58:01;;;;;;;2.97;0.95;;;;;14.80;101401.00;;;;5008046;28;20197;-79
2022/09/25 06:00:31;;;;;;;1.40;0.88;;;;;14.80;101409.00;;;;5008810;28;20193;-78
2022/09/25 06:02:58;;;;;;;1.08;0.70;;;;;14.80;101407.00;;;;5011671;28;20706;-78
2022/09/25 06:05:25;;;;;;;1.70;1.00;;;;;14.80;101405.00;;;;5000071;28;20693;-79
2022/09/25 06:07:53;;;;;;;3.50;0.90;;;;;14.80;101397.00;;;;5010256;28;20224;-78
2022/09/25 06:10:25;;;;;;;1.38;1.17;;;;;14.80;101406.00;;;;5009692;28;20209;-78
2022/09/25 06:12:57;;;;;;;1.30;1.13;;;;;14.90;101413.00;;;;5009776;28;20575;-79
2022/09/25 06:15:24;;;;;;;1.30;0.88;;;;;14.90;101407.00;;;;5010757;28;20189;-78
2022/09/25 06:17:52;;;;;;;1.92;0.90;;;;;14.90;101413.00;;;;5010638;28;20204;-79
2022/09/25 06:20:20;;;;;;;1.77;1.00;;;;;14.90;101412.00;;;;5008508;28;20207;-79
2022/09/25 06:22:53;;;;;;;1.55;1.02;;;;;14.80;101416.00;;;;4997103;28;20201;-78
2022/09/25 06:25:22;;;;;;;2.15;1.08;;;;;14.90;101422.00;;;;5011272;28;20197;-78
2022/09/25 06:27:51;;;;;;;1.17;0.90;;;;;14.90;101411.00;;;;5009478;28;20224;-78
2022/09/25 06:30:19;;;;;;;1.05;0.80;;;;;15.00;101416.00;;;;5009873;28;20197;-78
2022/09/25 06:32:47;;;;;;;1.85;1.30;;;;;15.00;101412.00;;;;5012237;28;20204;-78
2022/09/25 06:35:15;;;;;;;1.63;1.10;;;;;15.00;101416.00;;;;5026178;28;20670;-78
2022/09/25 06:37:42;;;;;;;1.75;1.35;;;;;15.10;101412.00;;;;5005509;28;20217;-78
2022/09/25 06:40:10;;;;;;;1.60;1.13;;;;;15.10;101410.00;;;;5001360;28;20734;-78
2022/09/25 06:42:39;;;;;;;2.28;1.33;;;;;15.20;101411.00;;;;5010029;28;20208;-78
2022/09/25 06:45:09;;;;;;;4.00;2.10;;;;;15.20;101412.00;;;;5009602;28;20212;-78
2022/09/25 06:47:37;;;;;;;2.63;1.58;;;;;15.30;101413.00;;;;5009427;28;20270;-78
2022/09/25 06:50:05;;;;;;;1.50;1.08;;;;;15.40;101418.00;;;;5000256;28;20205;-78
2022/09/25 06:52:32;;;;;;;2.00;1.13;;;;;15.40;101419.00;;;;5009629;28;20291;-78
2022/09/25 06:55:00;;;;;;;2.10;1.30;;;;;15.50;101418.00;;;;5005628;28;20216;-78
2022/09/25 06:57:27;;;;;;;2.15;1.40;;;;;15.60;101419.00;;;;5010082;28;20228;-78
2022/09/25 06:59:56;;;;;;;2.78;1.50;;;;;15.60;101412.00;;;;5010128;28;20780;-79
2022/09/25 07:05:09;;;;;;;4.50;1.85;;;;;15.80;101420.00;;;;5010140;28;20224;-78
2022/09/25 07:07:36;;;;;;;2.63;2.00;;;;;15.90;101420.00;;;;5009852;28;20228;-78
2022/09/25 07:10:04;;;;;;;2.92;2.50;;;;;16.00;101422.00;;;;5009534;28;20255;-79
2022/09/25 07:12:32;;;;;;;2.42;1.85;;;;;16.10;101424.00;;;;5008474;28;20569;-78
2022/09/25 07:15:00;;;;;;;1.63;1.10;;;;;16.20;101429.00;;;;5008167;28;20205;-78
2022/09/25 07:17:28;;;;;;;2.28;1.13;;;;;16.30;101435.00;;;;5008902;28;20667;-78
2022/09/25 07:19:55;;;;;;;3.50;1.45;;;;;16.40;101435.00;;;;5005919;28;20201;-78
2022/09/25 07:22:22;;;;;;;3.50;1.27;;;;;16.50;101439.00;;;;5006538;28;20212;-78
2022/09/25 07:24:50;;;;;;;2.53;1.27;;;;;16.60;101444.00;;;;5005554;28;20678;-78
2022/09/25 07:27:17;;;;;;;2.42;1.52;;;;;16.60;101441.00;;;;5009377;28;20201;-78
2022/09/25 07:29:44;;;;;;;1.55;1.40;;;;;16.70;101443.00;;;;5009190;28;20231;-78
2022/09/25 07:32:13;;;;;;;2.85;1.10;;;;;16.80;101438.00;;;;5009080;28;20201;-79
2022/09/25 07:34:41;;;;;;;2.08;1.23;;;;;16.90;101436.00;;;;5012325;28;20663;-78
2022/09/25 07:37:08;;;;;;;3.50;1.00;;;;;17.10;101440.00;;;;5014416;28;20201;-78
2022/09/25 07:39:35;;;;;;;1.95;1.25;;;;;17.20;101432.00;;;;5009696;28;20205;-78
2022/09/25 07:42:03;;;;;;;1.40;1.20;;;;;17.30;101431.00;;;;5009687;28;20205;-78
2022/09/25 07:44:30;;;;;;;1.27;0.93;;;;;17.40;101428.00;;;;5008463;28;20564;-78
2022/09/25 07:46:58;;;;;;;1.52;1.05;;;;;17.50;101433.00;;;;5004424;28;20197;-78
2022/09/25 07:49:28;;;;;;;4.13;1.30;;;;;17.50;101427.00;;;;5007541;28;20217;-78
2022/09/25 07:51:55;;;;;;;3.65;1.27;;;;;17.70;101431.00;;;;5009656;28;20221;-78
2022/09/25 07:54:23;;;;;;;4.05;1.08;;;;;17.80;101429.00;;;;5020725;28;20213;-78
2022/09/25 07:56:51;;;;;;;2.20;1.10;;;;;17.90;101428.00;;;;5007464;28;20204;-79
2022/09/25 07:59:18;;;;;;;1.85;1.00;;;;;18.00;101425.00;;;;5005450;28;20228;-79
2022/09/25 08:01:45;;;;;;;2.38;0.90;;;;;18.10;101431.00;;;;5007286;28;20758;-79
2022/09/25 08:04:12;;;;;;;3.60;1.40;;;;;18.20;101436.00;;;;5022480;28;20222;-79
2022/09/25 08:06:41;;;;;;;1.25;0.80;;;;;18.30;101436.00;;;;5015155;28;20201;-79
2022/09/25 08:09:10;;;;;;;1.75;0.82;;;;;18.40;101444.00;;;;5008640;28;20221;-78
2022/09/25 08:11:37;;;;;;;0.70;0.47;;;;;18.50;101435.00;;;;5005091;28;20193;-79
2022/09/25 08:14:05;;;;;;;1.52;0.70;;;;;18.60;101445.00;;;;5008354;28;20208;-78
2022/09/25 08:16:32;;;;;;;0.90;0.63;;;;;18.70;101439.00;;;;5008120;28;20675;-78
2022/09/25 08:18:59;;;;;;;1.83;0.98;;;;;18.80;101443.00;;;;5009507;28;20204;-78
2022/09/25 08:21:27;;;;;;;1.52;0.70;;;;;18.90;101438.00;;;;4990693;28;20201;-78
2022/09/25 08:23:55;;;;;;;1.55;0.70;;;;;19.00;101437.00;;;;5000498;28;20200;-78
2022/09/25 08:26:23;;;;;;;1.45;0.50;;;;;19.20;101434.00;;;;5008070;28;20197;-79
2022/09/25 08:28:50;;;;;;;1.88;0.60;;;;;19.20;101430.00;;;;5005389;28;20228;-78
2022/09/25 08:31:18;;;;;;;1.00;0.50;;;;;19.30;101430.00;;;;5017673;28;20205;-78
2022/09/25 08:33:46;;;;;;;3.92;0.65;;;;;19.40;101440.00;;;;5008710;28;21027;-77
2022/09/25 08:36:13;;;;;;;0.98;0.55;;;;;19.60;101443.00;;;;5007778;28;20208;-77
2022/09/25 08:38:40;;;;;;;1.27;0.68;;;;;19.60;101441.00;;;;5009031;28;20203;-77
2022/09/25 08:41:15;;;;;;;3.03;0.50;;;;;19.70;101435.00;;;;5008934;28;20209;-77
2022/09/25 08:43:47;;;;;;;2.10;0.43;;;;;19.80;101437.00;;;;5004115;28;20206;-77
2022/09/25 08:49:09;;;;;;;0.93;0.57;;;;;20.10;101435.00;;;;5008471;28;20231;-78
2022/09/25 08:51:38;;;;;;;2.05;0.60;;;;;20.20;101431.00;;;;4988886;28;20268;-77
2022/09/25 08:54:06;;;;;;;0.95;0.50;;;;;20.30;101433.00;;;;4988854;28;20205;-79
2022/09/25 08:56:36;;;;;;;1.95;0.30;;;;;20.40;101433.00;;;;4989210;28;20220;-78
2022/09/25 08:59:08;;;;;;;4.15;0.55;;;;;20.50;101436.00;;;;4989064;28;20402;-78
2022/09/25 09:01:54;;;;;;;2.25;0.30;;;;;20.60;101441.00;;;;4991711;28;20209;-78
2022/09/25 09:04:26;;;;;;;0.73;0.40;;;;;20.70;101438.00;;;;5008811;28;20216;-77
2022/09/25 09:07:04;;;;;;;3.20;0.70;;;;;20.90;101437.00;;;;5007576;28;20607;-78
2022/09/25 09:09:37;;;;;;;0.85;0.32;;;;;20.90;101434.00;;;;5009006;28;20749;-78
2022/09/25 09:12:11;;;;;;;1.38;0.40;;;;;21.00;101435.00;;;;4992693;28;20209;-77
2022/09/25 09:14:43;;;;;;;0.70;0.30;;;;;21.10;101435.00;;;;5008271;28;20209;-78
2022/09/25 09:17:17;;;;;;;1.20;0.60;;;;;21.20;101437.00;;;;5007992;28;20204;-77
2022/09/25 09:19:47;;;;;;;1.88;0.40;;;;;21.30;101437.00;;;;5008081;28;20209;-78
2022/09/25 09:22:18;;;;;;;2.15;0.30;;;;;21.30;101439.00;;;;5008257;28;20207;-78
2022/09/25 09:24:54;;;;;;;0.63;0.30;;;;;21.40;101435.00;;;;5005743;28;20201;-78
2022/09/25 09:27:38;;;;;;;0.38;0.10;;;;;21.50;101431.00;;;;4996957;28;20200;-79
2022/09/25 09:30:15;;;;;;;1.85;0.30;;;;;21.60;101438.00;;;;5000950;28;20219;-78
2022/09/25 09:32:59;;;;;;;1.17;0.30;;;;;21.70;101434.00;;;;5010201;28;20196;-79
2022/09/25 09:35:34;;;;;;;2.70;0.30;;;;;21.70;101434.00;;;;5003972;28;20196;-78
2022/09/25 09:38:13;;;;;;;1.33;0.60;;;;;21.70;101440.00;;;;5012309;28;20205;-80
2022/09/25 09:41:02;;;;;;;0.85;0.30;;;;;21.70;101438.00;;;;5011624;28;20283;-78
2022/09/25 09:43:45;;;;;;;2.38;0.50;;;;;21.70;101431.00;;;;5011865;28;20645;-78
2022/09/25 09:46:20;;;;;;;0.60;0.40;;;;;21.70;101430.00;;;;5001895;28;20205;-78
2022/09/25 09:48:57;;;;;;;3.13;0.30;;;;;21.70;101430.00;;;;5011151;28;20224;-78
2022/09/25 09:51:31;;;;;;;2.05;0.50;;;;;21.80;101438.00;;;;4993112;28;20201;-78
2022/09/25 09:54:03;;;;;;;4.28;0.50;;;;;21.80;101425.00;;;;4991988;28;20193;-79
2022/09/25 09:56:34;;;;;;;2.90;0.57;;;;;21.80;101421.00;;;;4992429;28;20205;-78
2022/09/25 09:59:05;;;;;;;2.45;0.70;;;;;21.80;101420.00;;;;5009903;28;20232;-78
2022/09/25 10:01:36;;;;;;;1.70;0.80;;;;;21.80;101423.00;;;;5010960;28;20216;-78
2022/09/25 10:04:08;;;;;;;1.27;0.32;;;;;21.90;101416.00;;;;5012012;28;20271;-79
2022/09/25 10:06:38;;;;;;;1.90;0.38;;;;;21.90;101413.00;;;;5011753;28;20212;-78
2022/09/25 10:09:07;;;;;;;2.17;0.40;;;;;22.00;101414.00;;;;5010461;28;20233;-79
2022/09/25 10:11:36;;;;;;;1.58;0.50;;;;;22.00;101418.00;;;;5012105;28;20663;-78
2022/09/25 10:14:05;;;;;;;1.58;0.20;;;;;22.00;101413.00;;;;5010295;28;20201;-78
2022/09/25 10:16:33;;;;;;;2.45;0.30;;;;;22.00;101418.00;;;;5011536;28;20294;-78
2022/09/25 10:19:05;;;;;;;1.45;0.40;;;;;22.00;101416.00;;;;5004464;28;20220;-78
2022/09/25 10:21:38;;;;;;;0.90;0.60;;;;;22.00;101420.00;;;;4991425;28;20205;-78
2022/09/25 10:24:06;;;;;;;1.73;0.40;;;;;21.90;101425.00;;;;5003981;28;20200;-78
2022/09/25 10:26:35;;;;;;;1.27;0.40;;;;;21.90;101417.00;;;;5010666;28;20597;-78
2022/09/25 10:29:24;;;;;;;0.40;0.15;;;;;21.90;101419.00;;;;5009411;28;20225;-78
2022/09/25 10:31:59;;;;;;;2.25;0.88;;;;;21.80;101415.00;;;;5011421;28;20280;-78
2022/09/25 10:34:28;;;;;;;1.95;0.55;;;;;21.80;101415.00;;;;5010906;28;20196;-78
2022/09/25 10:36:56;;;;;;;1.05;0.30;;;;;21.70;101418.00;;;;4996418;28;20241;-79
2022/09/25 10:39:29;;;;;;;0.73;0.40;;;;;21.60;101413.00;;;;4989909;28;20201;-78
2022/09/25 10:41:58;;;;;;;1.45;0.43;;;;;21.60;101419.00;;;;5009560;28;20670;-78
2022/09/25 10:44:33;;;;;;;1.77;0.32;;;;;21.50;101414.00;;;;5010227;28;20239;-78
2022/09/25 10:50:19;;;;;;;1.58;0.40;;;;;21.50;101413.00;;;;5009612;28;20674;-78
2022/09/25 10:52:49;;;;;;;1.10;0.32;;;;;21.60;101408.00;;;;5004068;28;20210;-78
2022/09/25 10:55:27;;;;;;;2.28;0.40;;;;;21.70;101408.00;;;;4990414;28;20699;-78
2022/09/25 10:58:02;;;;;;;2.22;0.30;;;;;21.80;101401.00;;;;4990394;28;20212;-77
2022/09/25 11:00:32;;;;;;;1.02;0.30;;;;;22.00;101406.00;;;;5010300;28;20220;-78
2022/09/25 11:03:03;;;;;;;3.05;0.47;;;;;22.10;101398.00;;;;5026917;28;20254;-78
2022/09/25 11:05:32;;;;;;;2.53;0.30;;;;;22.30;101399.00;;;;5005245;28;20231;-78
2022/09/25 11:08:03;;;;;;;0.65;0.20;;;;;22.40;101400.00;;;;5008694;28;20510;-78
2022/09/25 11:10:34;;;;;;;1.17;0.30;;;;;22.50;101390.00;;;;4998485;28;20229;-78
2022/09/25 11:13:04;;;;;;;0.50;0.32;;;;;22.70;101389.00;;;;4991203;28;20202;-78
2022/09/25 11:15:38;;;;;;;1.15;0.30;;;;;22.80;101387.00;;;;4990820;28;20325;-78
2022/09/25 11:18:05;;;;;;;3.40;0.50;;;;;22.90;101385.00;;;;4990326;28;20770;-78
2022/09/25 11:20:33;;;;;;;1.10;0.50;;;;;22.90;101399.00;;;;5007861;28;20817;-79
2022/09/25 11:23:20;;;;;;;0.43;0.20;;;;;22.90;101393.00;;;;5005929;28;20197;-78
2022/09/25 11:25:52;;;;;;;0.40;0.35;;;;;22.90;101391.00;;;;5010607;28;20204;-78
2022/09/25 11:28:30;;;;;;;1.55;0.30;;;;;22.80;101388.00;;;;4992124;28;20567;-78
2022/09/25 11:31:07;;;;;;;1.52;0.60;;;;;22.70;101385.00;;;;5009887;28;20225;-78
2022/09/25 11:33:49;;;;;;;1.27;0.45;;;;;22.70;101385.00;;;;5030226;28;20207;-78
2022/09/25 11:36:20;;;;;;;0.85;0.30;;;;;22.80;101372.00;;;;5021402;28;20224;-78
2022/09/25 11:41:40;;;;;;;1.40;0.52;;;;;22.90;101366.00;;;;5009036;28;20231;-80
2022/09/25 11:44:21;;;;;;;0.55;0.20;;;;;22.90;101360.00;;;;5001982;28;20210;-78
2022/09/25 11:47:00;;;;;;;2.25;0.50;;;;;23.10;101358.00;;;;4989908;28;20207;-78
2022/09/25 11:49:33;;;;;;;0.25;0.20;;;;;23.20;101360.00;;;;4994807;28;20702;-79
2022/09/25 11:52:29;;;;;;;1.38;1.00;;;;;23.10;101359.00;;;;5001373;28;20267;-78
2022/09/25 11:55:35;;;;;;;0.70;0.30;;;;;23.20;101357.00;;;;5009719;28;20208;-78
2022/09/25 11:58:29;;;;;;;1.38;0.28;;;;;23.30;101348.00;;;;5009461;28;20207;-78
2022/09/25 12:01:06;;;;;;;0.45;0.13;;;;;23.40;101345.00;;;;5016420;28;20206;-78
2022/09/25 12:03:46;;;;;;;1.48;0.20;;;;;23.40;101344.00;;;;5029169;28;20219;-78
2022/09/25 12:06:38;;;;;;;1.73;0.25;;;;;23.30;101350.00;;;;5016647;28;20216;-78
2022/09/25 12:09:27;;;;;;;0.60;0.20;;;;;23.30;101345.00;;;;5008607;28;20213;-78
2022/09/25 12:12:01;;;;;;;1.05;0.30;;;;;23.40;101344.00;;;;5009652;28;20228;-79
2022/09/25 12:14:34;;;;;;;0.70;0.60;;;;;23.40;101338.00;;;;5009271;28;20192;-78
2022/09/25 12:17:07;;;;;;;0.50;0.25;;;;;23.50;101339.00;;;;5009356;28;20188;-79
2022/09/25 12:19:45;;;;;;;0.25;0.10;;;;;23.50;101337.00;;;;4995175;28;20209;-79
2022/09/25 12:22:23;;;;;;;0.40;0.30;;;;;23.50;101332.00;;;;5007389;28;20909;-78
2022/09/25 12:25:06;;;;;;;1.75;0.10;;;;;23.50;101331.00;;;;5009204;28;20229;-79
2022/09/25 12:27:45;;;;;;;0.35;0.20;;;;;23.60;101322.00;;;;5006169;28;20197;-79
2022/09/25 12:30:18;;;;;;;0.88;0.20;;;;;23.70;101325.00;;;;5000117;28;20221;-79
2022/09/25 12:33:03;;;;;;;0.93;0.30;;;;;23.70;101324.00;;;;4989568;28;20202;-79
2022/09/25 12:35:40;;;;;;;0.30;0.17;;;;;23.70;101329.00;;;;5000688;28;20205;-79
2022/09/25 12:38:18;;;;;;;0.38;0.15;;;;;23.80;101322.00;;;;5007923;28;20201;-78
2022/09/25 12:40:50;;;;;;;1.13;0.20;;;;;23.80;101317.00;;;;5008962;28;20205;-78
2022/09/25 12:43:22;;;;;;;0.98;0.20;;;;;23.80;101311.00;;;;5008907;28;20196;-78
2022/09/25 12:45:55;;;;;;;0.10;0.10;;;;;23.80;101311.00;;;;5008827;28;20295;-79